sensor_id;sensor_type;location;lat;lon;timestamp;pressure;altitude;pressure_sealevel;temperature;humidity
37852;BME280;23691;52.486;4.650;2023-10-13T00:46:56;100976.53;;;19.40;80.85
37852;BME280;23691;52.486;4.650;2023-10-13T00:49:22;100976.53;;;19.40;80.85
37852;BME280;23691;52.486;4.650;2023-10-13T00:51:48;100971.91;;;19.40;80.78
37852;BME280;23691;52.486;4.650;2023-10-13T00:54:13;100967.31;;;19.41;80.70
37852;BME280;23691;52.486;4.650;2023-10-13T00:59:30;100967.09;;;19.42;80.77
37852;BME280;23691;52.486;4.650;2023-10-13T01:02:01;100960.00;;;19.41;80.43
37852;BME280;23691;52.486;4.650;2023-10-13T01:04:47;100951.25;;;19.39;80.57
37852;BME280;23691;52.486;4.650;2023-10-13T01:07:13;100949.38;;;19.40;80.63
37852;BME280;23691;52.486;4.650;2023-10-13T01:09:41;100948.53;;;19.39;80.85
37852;BME280;23691;52.486;4.650;2023-10-13T01:12:12;100935.81;;;19.40;80.94
37852;BME280;23691;52.486;4.650;2023-10-13T01:14:37;100932.50;;;19.38;80.80
37852;BME280;23691;52.486;4.650;2023-10-13T01:17:02;100932.50;;;19.38;80.85
37852;BME280;23691;52.486;4.650;2023-10-13T01:19:35;100931.44;;;19.39;80.89
37852;BME280;23691;52.486;4.650;2023-10-13T01:22:04;100930.41;;;19.40;81.08
37852;BME280;23691;52.486;4.650;2023-10-13T01:24:32;100925.19;;;19.38;81.12
37852;BME280;23691;52.486;4.650;2023-10-13T01:27:00;100918.94;;;19.38;81.01
37852;BME280;23691;52.486;4.650;2023-10-13T01:29:36;100913.25;;;19.39;81.29
37852;BME280;23691;52.486;4.650;2023-10-13T01:32:01;100920.56;;;19.39;81.36
37852;BME280;23691;52.486;4.650;2023-10-13T01:34:26;100911.63;;;19.38;81.51
37852;BME280;23691;52.486;4.650;2023-10-13T01:36:52;100907.00;;;19.39;81.55
37852;BME280;23691;52.486;4.650;2023-10-13T01:39:18;100910.34;;;19.41;81.52
37852;BME280;23691;52.486;4.650;2023-10-13T01:41:44;100910.97;;;19.43;81.65
37852;BME280;23691;52.486;4.650;2023-10-13T01:44:10;100913.66;;;19.43;81.76
37852;BME280;23691;52.486;4.650;2023-10-13T01:46:40;100900.94;;;19.43;82.07
37852;BME280;23691;52.486;4.650;2023-10-13T01:49:07;100898.44;;;19.42;81.97
37852;BME280;23691;52.486;4.650;2023-10-13T01:51:33;100899.03;;;19.44;82.18
37852;BME280;23691;52.486;4.650;2023-10-13T01:53:58;100891.50;;;19.46;82.36
37852;BME280;23691;52.486;4.650;2023-10-13T01:56:24;100879.22;;;19.43;82.23
37852;BME280;23691;52.486;4.650;2023-10-13T01:58:49;100877.34;;;19.44;82.40
37852;BME280;23691;52.486;4.650;2023-10-13T02:01:15;100870.06;;;19.44;82.41
37852;BME280;23691;52.486;4.650;2023-10-13T02:03:55;100874.41;;;19.45;82.39
37852;BME280;23691;52.486;4.650;2023-10-13T02:06:33;100868.16;;;19.45;82.19
37852;BME280;23691;52.486;4.650;2023-10-13T02:09:03;100860.84;;;19.45;82.46
37852;BME280;23691;52.486;4.650;2023-10-13T02:11:41;100857.06;;;19.46;82.35
37852;BME280;23691;52.486;4.650;2023-10-13T02:14:10;100857.06;;;19.46;82.30
37852;BME280;23691;52.486;4.650;2023-10-13T02:16:36;100845.19;;;19.47;82.31
37852;BME280;23691;52.486;4.650;2023-10-13T02:19:01;100849.53;;;19.48;82.28
37852;BME280;23691;52.486;4.650;2023-10-13T02:21:32;100844.13;;;19.48;82.53
37852;BME280;23691;52.486;4.650;2023-10-13T02:24:04;100841.66;;;19.47;82.61
37852;BME280;23691;52.486;4.650;2023-10-13T02:26:32;100828.91;;;19.47;82.73
37852;BME280;23691;52.486;4.650;2023-10-13T02:29:03;100827.00;;;19.48;82.75
37852;BME280;23691;52.486;4.650;2023-10-13T02:31:34;100821.59;;;19.48;82.84
37852;BME280;23691;52.486;4.650;2023-10-13T02:33:59;100813.44;;;19.48;82.91
37852;BME280;23691;52.486;4.650;2023-10-13T02:36:26;100813.22;;;19.49;82.87
37852;BME280;23691;52.486;4.650;2023-10-13T02:39:04;100804.25;;;19.49;82.93
37852;BME280;23691;52.486;4.650;2023-10-13T02:41:33;100802.38;;;19.49;82.82
37852;BME280;23691;52.486;4.650;2023-10-13T02:44:02;100794.00;;;19.51;83.05
37852;BME280;23691;52.486;4.650;2023-10-13T02:46:30;100788.34;;;19.52;82.66
37852;BME280;23691;52.486;4.650;2023-10-13T02:48:56;100781.84;;;19.53;83.00
37852;BME280;23691;52.486;4.650;2023-10-13T02:51:23;100779.16;;;19.53;82.83
37852;BME280;23691;52.486;4.650;2023-10-13T02:54:00;100774.31;;;19.56;82.85
37852;BME280;23691;52.486;4.650;2023-10-13T02:56:28;100768.09;;;19.55;82.59
37852;BME280;23691;52.486;4.650;2023-10-13T02:58:54;100759.13;;;19.55;82.74
37852;BME280;23691;52.486;4.650;2023-10-13T03:01:21;100754.72;;;19.53;82.75
37852;BME280;23691;52.486;4.650;2023-10-13T03:03:52;100752.00;;;19.53;82.76
37852;BME280;23691;52.486;4.650;2023-10-13T03:06:19;100739.28;;;19.54;82.77
37852;BME280;23691;52.486;4.650;2023-10-13T03:09:07;100736.56;;;19.54;82.68
37852;BME280;23691;52.486;4.650;2023-10-13T03:11:50;100726.31;;;19.56;82.65
37852;BME280;23691;52.486;4.650;2023-10-13T03:14:19;100708.59;;;19.53;82.72
37852;BME280;23691;52.486;4.650;2023-10-13T03:16:53;100699.84;;;19.51;82.57
37852;BME280;23691;52.486;4.650;2023-10-13T03:19:19;100688.19;;;19.51;82.52
37852;BME280;23691;52.486;4.650;2023-10-13T03:21:45;100679.06;;;19.45;82.81
37852;BME280;23691;52.486;4.650;2023-10-13T03:24:19;100678.47;;;19.43;82.66
37852;BME280;23691;52.486;4.650;2023-10-13T03:26:48;100672.22;;;19.43;82.80
37852;BME280;23691;52.486;4.650;2023-10-13T03:29:17;100679.53;;;19.42;82.50
37852;BME280;23691;52.486;4.650;2023-10-13T03:31:46;100681.38;;;19.42;82.65
37852;BME280;23691;52.486;4.650;2023-10-13T03:34:12;100679.53;;;19.42;82.62
37852;BME280;23691;52.486;4.650;2023-10-13T03:36:37;100678.69;;;19.42;82.62
37852;BME280;23691;52.486;4.650;2023-10-13T03:39:22;100671.59;;;19.41;82.36
37852;BME280;23691;52.486;4.650;2023-10-13T03:41:56;100656.41;;;19.40;82.47
37852;BME280;23691;52.486;4.650;2023-10-13T03:44:22;100657.44;;;19.39;82.36
37852;BME280;23691;52.486;4.650;2023-10-13T03:46:47;100646.59;;;19.39;82.39
37852;BME280;23691;52.486;4.650;2023-10-13T03:49:16;100638.31;;;19.34;82.30
37852;BME280;23691;52.486;4.650;2023-10-13T03:51:46;100632.53;;;19.30;82.36
37852;BME280;23691;52.486;4.650;2023-10-13T03:54:13;100627.31;;;19.28;82.39
37852;BME280;23691;52.486;4.650;2023-10-13T03:56:40;100626.72;;;19.26;82.49
37852;BME280;23691;52.486;4.650;2023-10-13T03:59:06;100617.75;;;19.26;82.61
37852;BME280;23691;52.486;4.650;2023-10-13T04:01:34;100609.97;;;19.29;82.17
37852;BME280;23691;52.486;4.650;2023-10-13T04:04:10;100602.09;;;19.28;82.13
37852;BME280;23691;52.486;4.650;2023-10-13T04:06:37;100580.00;;;19.24;82.20
37852;BME280;23691;52.486;4.650;2023-10-13T04:09:18;100571.03;;;19.24;82.32
37852;BME280;23691;52.486;4.650;2023-10-13T04:11:56;100571.84;;;19.24;82.11
37852;BME280;23691;52.486;4.650;2023-10-13T04:14:27;100571.84;;;19.24;81.78
37852;BME280;23691;52.486;4.650;2023-10-13T04:17:11;100571.66;;;19.26;81.99
37852;BME280;23691;52.486;4.650;2023-10-13T04:24:50;100551.69;;;19.20;82.08
37852;BME280;23691;52.486;4.650;2023-10-13T04:30:06;100549.41;;;19.17;82.06
37852;BME280;23691;52.486;4.650;2023-10-13T04:37:42;100527.38;;;19.14;81.66
37852;BME280;23691;52.486;4.650;2023-10-13T04:40:26;100517.81;;;19.11;81.61
37852;BME280;23691;52.486;4.650;2023-10-13T05:00:49;100484.91;;;19.07;81.98
37852;BME280;23691;52.486;4.650;2023-10-13T05:23:32;100478.34;;;19.15;83.50
37852;BME280;23691;52.486;4.650;2023-10-13T05:26:17;100474.09;;;19.19;83.93
37852;BME280;23691;52.486;4.650;2023-10-13T05:29:02;100472.59;;;19.23;84.46
37852;BME280;23691;52.486;4.650;2023-10-13T05:31:46;100483.78;;;19.27;84.57
37852;BME280;23691;52.486;4.650;2023-10-13T05:34:31;100468.94;;;19.29;84.66
37852;BME280;23691;52.486;4.650;2023-10-13T06:51:15;100386.06;;;19.34;82.48
37852;BME280;23691;52.486;4.650;2023-10-13T07:39:46;100298.69;;;19.55;80.50
37852;BME280;23691;52.486;4.650;2023-10-13T08:02:46;100286.50;;;19.81;80.92
37852;BME280;23691;52.486;4.650;2023-10-13T08:05:16;100276.81;;;19.85;81.11
37852;BME280;23691;52.486;4.650;2023-10-13T08:07:54;100263.63;;;19.89;81.05
37852;BME280;23691;52.486;4.650;2023-10-13T08:10:21;100256.41;;;19.94;81.08
37852;BME280;23691;52.486;4.650;2023-10-13T08:12:52;100260.84;;;20.01;81.03
37852;BME280;23691;52.486;4.650;2023-10-13T08:15:19;100255.78;;;20.04;81.06
37852;BME280;23691;52.486;4.650;2023-10-13T08:17:59;100250.44;;;20.09;80.56
37852;BME280;23691;52.486;4.650;2023-10-13T08:20:28;100242.38;;;20.14;80.53
37852;BME280;23691;52.486;4.650;2023-10-13T08:22:55;100238.13;;;20.19;80.33
37852;BME280;23691;52.486;4.650;2023-10-13T08:25:38;100245.06;;;20.26;80.01
37852;BME280;23691;52.486;4.650;2023-10-13T08:28:22;100242.44;;;20.31;79.81
37852;BME280;23691;52.486;4.650;2023-10-13T08:31:06;100224.34;;;20.37;79.65
37852;BME280;23691;52.486;4.650;2023-10-13T08:33:51;100232.06;;;20.45;79.18
37852;BME280;23691;52.486;4.650;2023-10-13T08:36:23;100222.63;;;20.48;78.96
37852;BME280;23691;52.486;4.650;2023-10-13T08:38:55;100220.00;;;20.53;78.65
37852;BME280;23691;52.486;4.650;2023-10-13T08:41:21;100214.69;;;20.58;78.43
37852;BME280;23691;52.486;4.650;2023-10-13T08:43:53;100212.97;;;20.69;77.90
37852;BME280;23691;52.486;4.650;2023-10-13T08:46:28;100206.72;;;20.68;77.72
37852;BME280;23691;52.486;4.650;2023-10-13T08:48:56;100215.44;;;20.70;77.64
37852;BME280;23691;52.486;4.650;2023-10-13T08:51:39;100206.63;;;20.63;77.29
37852;BME280;23691;52.486;4.650;2023-10-13T08:54:14;100192.63;;;20.71;76.97
37852;BME280;23691;52.486;4.650;2023-10-13T08:56:59;100192.09;;;20.74;76.38
37852;BME280;23691;52.486;4.650;2023-10-13T08:59:31;100185.69;;;20.80;75.78
37852;BME280;23691;52.486;4.650;2023-10-13T09:02:18;100158.44;;;20.75;75.47
37852;BME280;23691;52.486;4.650;2023-10-13T09:04:44;100171.28;;;20.80;75.42
37852;BME280;23691;52.486;4.650;2023-10-13T09:07:10;100164.19;;;20.79;74.47
37852;BME280;23691;52.486;4.650;2023-10-13T09:09:45;100174.25;;;20.78;74.16
37852;BME280;23691;52.486;4.650;2023-10-13T09:12:20;100168.00;;;20.78;74.37
37852;BME280;23691;52.486;4.650;2023-10-13T09:15:08;100167.31;;;20.88;73.69
37852;BME280;23691;52.486;4.650;2023-10-13T09:17:48;100168.28;;;20.98;73.46
37852;BME280;23691;52.486;4.650;2023-10-13T09:20:18;100161.50;;;21.18;72.73
37852;BME280;23691;52.486;4.650;2023-10-13T09:23:10;100152.19;;;21.36;72.33
37852;BME280;23691;52.486;4.650;2023-10-13T09:25:38;100161.41;;;21.52;71.87
37852;BME280;23691;52.486;4.650;2023-10-13T09:28:14;100158.00;;;21.61;71.02
37852;BME280;23691;52.486;4.650;2023-10-13T09:30:46;100144.75;;;21.70;70.55
37852;BME280;23691;52.486;4.650;2023-10-13T09:33:11;100154.41;;;21.83;70.41
37852;BME280;23691;52.486;4.650;2023-10-13T09:35:46;100135.22;;;21.95;69.87
37852;BME280;23691;52.486;4.650;2023-10-13T09:38:19;100141.84;;;22.04;69.17
37852;BME280;23691;52.486;4.650;2023-10-13T09:40:46;100140.03;;;22.15;68.70
37852;BME280;23691;52.486;4.650;2023-10-13T09:43:18;100147.88;;;22.33;68.13
37852;BME280;23691;52.486;4.650;2023-10-13T09:45:47;100139.22;;;22.41;68.00
37852;BME280;23691;52.486;4.650;2023-10-13T09:51:02;100132.81;;;22.58;66.83
37852;BME280;23691;52.486;4.650;2023-10-13T09:53:33;100135.22;;;22.54;66.32
37852;BME280;23691;52.486;4.650;2023-10-13T09:58:51;100137.19;;;22.64;65.93
37852;BME280;23691;52.486;4.650;2023-10-13T10:01:22;100123.31;;;22.65;65.04
37852;BME280;23691;52.486;4.650;2023-10-13T10:04:06;100130.50;;;22.77;64.81
37852;BME280;23691;52.486;4.650;2023-10-13T10:06:37;100118.00;;;22.91;64.39
37852;BME280;23691;52.486;4.650;2023-10-13T10:09:10;100119.50;;;23.04;64.35
37852;BME280;23691;52.486;4.650;2023-10-13T10:17:06;100107.66;;;22.93;63.88
37852;BME280;23691;52.486;4.650;2023-10-13T10:19:48;100116.06;;;22.86;63.41
37852;BME280;23691;52.486;4.650;2023-10-13T10:22:24;100114.19;;;22.87;63.72
37852;BME280;23691;52.486;4.650;2023-10-13T11:52:35;100035.88;;;22.35;63.29
37852;BME280;23691;52.486;4.650;2023-10-13T11:57:35;100036.69;;;22.30;63.39
37852;BME280;23691;52.486;4.650;2023-10-13T12:00:01;100053.84;;;22.31;64.08
37852;BME280;23691;52.486;4.650;2023-10-13T12:02:48;100052.19;;;22.29;64.54
37852;BME280;23691;52.486;4.650;2023-10-13T12:05:32;100041.00;;;22.26;64.90
37852;BME280;23691;52.486;4.650;2023-10-13T12:08:14;100052.69;;;22.21;65.04
37852;BME280;23691;52.486;4.650;2023-10-13T12:10:47;100025.38;;;22.16;65.59
37852;BME280;23691;52.486;4.650;2023-10-13T12:13:24;100046.59;;;22.14;65.50
37852;BME280;23691;52.486;4.650;2023-10-13T12:15:50;100048.19;;;22.10;65.91
37852;BME280;23691;52.486;4.650;2023-10-13T12:18:17;100043.78;;;22.04;65.94
37852;BME280;23691;52.486;4.650;2023-10-13T12:20:44;100024.16;;;22.02;66.34
37852;BME280;23691;52.486;4.650;2023-10-13T12:23:11;100009.16;;;21.99;66.99
37852;BME280;23691;52.486;4.650;2023-10-13T12:25:40;100034.19;;;21.96;67.30
37852;BME280;23691;52.486;4.650;2023-10-13T12:28:31;100034.41;;;21.90;67.76
37852;BME280;23691;52.486;4.650;2023-10-13T12:31:03;100022.69;;;21.89;68.11
37852;BME280;23691;52.486;4.650;2023-10-13T12:33:30;100016.16;;;21.90;68.19
37852;BME280;23691;52.486;4.650;2023-10-13T12:36:02;100021.34;;;21.92;68.40
37852;BME280;23691;52.486;4.650;2023-10-13T12:38:55;100004.22;;;21.91;68.19
37852;BME280;23691;52.486;4.650;2023-10-13T12:41:33;100012.41;;;21.96;68.42
37852;BME280;23691;52.486;4.650;2023-10-13T12:44:17;99992.81;;;21.99;68.21
37852;BME280;23691;52.486;4.650;2023-10-13T12:47:01;100006.69;;;21.98;68.58
37852;BME280;23691;52.486;4.650;2023-10-13T12:49:45;99999.09;;;22.00;68.48
37852;BME280;23691;52.486;4.650;2023-10-13T12:52:10;100003.72;;;21.99;68.57
37852;BME280;23691;52.486;4.650;2023-10-13T12:54:42;100008.34;;;21.99;68.91
37852;BME280;23691;52.486;4.650;2023-10-13T12:57:12;100011.88;;;21.99;68.91
37852;BME280;23691;52.486;4.650;2023-10-13T12:59:41;99994.72;;;21.99;68.98
37852;BME280;23691;52.486;4.650;2023-10-13T13:02:09;99998.84;;;22.01;68.79
37852;BME280;23691;52.486;4.650;2023-10-13T13:04:40;100011.69;;;22.06;68.70
37852;BME280;23691;52.486;4.650;2023-10-13T13:07:09;99994.81;;;22.09;68.70
37852;BME280;23691;52.486;4.650;2023-10-13T13:09:38;100003.00;;;22.14;68.59
37852;BME280;23691;52.486;4.650;2023-10-13T13:14:39;99995.16;;;22.18;68.20
37852;BME280;23691;52.486;4.650;2023-10-13T13:17:11;99996.56;;;22.20;68.20
37852;BME280;23691;52.486;4.650;2023-10-13T13:19:37;99993.56;;;22.22;67.83
37852;BME280;23691;52.486;4.650;2023-10-13T13:22:06;99995.22;;;22.23;67.89
37852;BME280;23691;52.486;4.650;2023-10-13T13:24:40;99999.00;;;22.22;68.05
37852;BME280;23691;52.486;4.650;2023-10-13T13:27:13;100000.84;;;22.16;68.78
37852;BME280;23691;52.486;4.650;2023-10-13T13:29:42;100025.38;;;22.16;68.87
37852;BME280;23691;52.486;4.650;2023-10-13T13:32:07;100004.88;;;22.08;69.64
37852;BME280;23691;52.486;4.650;2023-10-13T13:37:27;99999.03;;;22.27;69.76
37852;BME280;23691;52.486;4.650;2023-10-13T13:40:07;99993.13;;;22.35;70.10
37852;BME280;23691;52.486;4.650;2023-10-13T13:42:42;100001.81;;;22.37;70.17
37852;BME280;23691;52.486;4.650;2023-10-13T13:45:17;99998.53;;;22.30;70.53
37852;BME280;23691;52.486;4.650;2023-10-13T13:47:52;99984.16;;;22.40;70.45
37852;BME280;23691;52.486;4.650;2023-10-13T13:50:21;99995.06;;;22.40;70.79
37852;BME280;23691;52.486;4.650;2023-10-13T13:52:50;99977.00;;;22.28;71.08
37852;BME280;23691;52.486;4.650;2023-10-13T13:55:20;99982.16;;;22.25;71.26
37852;BME280;23691;52.486;4.650;2023-10-13T13:57:45;99991.72;;;22.27;70.85
37852;BME280;23691;52.486;4.650;2023-10-13T14:00:11;99987.03;;;22.23;70.83
37852;BME280;23691;52.486;4.650;2023-10-13T14:02:42;99989.94;;;22.16;70.84
37852;BME280;23691;52.486;4.650;2023-10-13T14:05:13;100004.31;;;22.06;71.23
37852;BME280;23691;52.486;4.650;2023-10-13T14:07:43;99998.03;;;22.01;71.13
37852;BME280;23691;52.486;4.650;2023-10-13T14:10:14;100000.44;;;21.97;71.04
37852;BME280;23691;52.486;4.650;2023-10-13T14:12:56;100017.81;;;21.91;71.56
37852;BME280;23691;52.486;4.650;2023-10-13T14:15:37;100023.78;;;21.88;71.40
37852;BME280;23691;52.486;4.650;2023-10-13T14:18:11;100028.63;;;21.81;71.64
37852;BME280;23691;52.486;4.650;2023-10-13T14:20:42;100036.75;;;21.76;72.00
37852;BME280;23691;52.486;4.650;2023-10-13T14:23:10;100036.44;;;21.72;72.22
37852;BME280;23691;52.486;4.650;2023-10-13T14:25:39;100033.41;;;21.69;72.33
37852;BME280;23691;52.486;4.650;2023-10-13T14:28:09;100035.53;;;21.61;72.84
37852;BME280;23691;52.486;4.650;2023-10-13T14:30:36;100027.31;;;21.56;73.32
37852;BME280;23691;52.486;4.650;2023-10-13T14:33:01;100025.34;;;21.52;73.72
37852;BME280;23691;52.486;4.650;2023-10-13T14:35:29;100035.44;;;21.51;74.01
37852;BME280;23691;52.486;4.650;2023-10-13T14:37:54;100042.19;;;21.49;74.22
37852;BME280;23691;52.486;4.650;2023-10-13T14:40:20;100036.69;;;21.43;74.70
37852;BME280;23691;52.486;4.650;2023-10-13T14:42:48;100038.28;;;21.39;74.90
37852;BME280;23691;52.486;4.650;2023-10-13T14:45:13;100017.09;;;21.41;75.08
37852;BME280;23691;52.486;4.650;2023-10-13T14:47:44;100023.50;;;21.35;75.74
37852;BME280;23691;52.486;4.650;2023-10-13T14:50:10;99999.03;;;21.35;75.98
37852;BME280;23691;52.486;4.650;2023-10-13T14:52:42;100024.03;;;21.32;76.09
37852;BME280;23691;52.486;4.650;2023-10-13T14:55:08;100019.91;;;21.30;76.33
37852;BME280;23691;52.486;4.650;2023-10-13T14:57:43;99997.59;;;21.28;76.69
37852;BME280;23691;52.486;4.650;2023-10-13T15:00:09;99997.53;;;21.22;77.09
37852;BME280;23691;52.486;4.650;2023-10-13T15:02:39;99985.31;;;21.25;77.07
37852;BME280;23691;52.486;4.650;2023-10-13T15:05:08;99991.34;;;21.27;77.14
37852;BME280;23691;52.486;4.650;2023-10-13T15:07:35;99985.66;;;21.34;76.80
37852;BME280;23691;52.486;4.650;2023-10-13T15:10:00;99986.00;;;21.37;76.56
37852;BME280;23691;52.486;4.650;2023-10-13T15:12:26;99980.06;;;21.40;76.54
37852;BME280;23691;52.486;4.650;2023-10-13T15:14:51;99990.69;;;21.42;76.31
37852;BME280;23691;52.486;4.650;2023-10-13T15:17:20;99987.41;;;21.40;76.85
37852;BME280;23691;52.486;4.650;2023-10-13T15:19:49;99983.06;;;21.39;76.99
37852;BME280;23691;52.486;4.650;2023-10-13T15:22:15;99974.28;;;21.37;76.88
37852;BME280;23691;52.486;4.650;2023-10-13T15:24:50;99953.59;;;21.36;77.31
37852;BME280;23691;52.486;4.650;2023-10-13T15:27:33;99960.13;;;21.35;77.18
37852;BME280;23691;52.486;4.650;2023-10-13T15:30:06;99958.22;;;21.35;77.17
37852;BME280;23691;52.486;4.650;2023-10-13T15:32:45;99963.66;;;21.35;77.11
37852;BME280;23691;52.486;4.650;2023-10-13T15:35:10;99969.34;;;21.34;77.36
37852;BME280;23691;52.486;4.650;2023-10-13T15:37:38;99975.63;;;21.34;77.35
37852;BME280;23691;52.486;4.650;2023-10-13T15:40:03;99961.75;;;21.36;77.33
37852;BME280;23691;52.486;4.650;2023-10-13T15:54:13;99927.47;;;21.35;77.00
37852;BME280;23691;52.486;4.650;2023-10-13T15:56:45;99921.72;;;21.31;77.09
37852;BME280;23691;52.486;4.650;2023-10-13T15:59:22;99935.59;;;21.30;77.14
37852;BME280;23691;52.486;4.650;2023-10-13T16:01:48;99926.84;;;21.28;77.07
37852;BME280;23691;52.486;4.650;2023-10-13T16:04:20;99913.25;;;21.28;77.04
37852;BME280;23691;52.486;4.650;2023-10-13T16:06:52;99905.09;;;21.28;76.80
37852;BME280;23691;52.486;4.650;2023-10-13T16:12:35;99911.88;;;21.25;76.77
37852;BME280;23691;52.486;4.650;2023-10-13T16:20:36;99892.25;;;21.23;76.54
37852;BME280;23691;52.486;4.650;2023-10-13T16:23:02;99880.56;;;21.22;76.73
37852;BME280;23691;52.486;4.650;2023-10-13T16:25:28;99889.25;;;21.19;76.84
37852;BME280;23691;52.486;4.650;2023-10-13T16:27:53;99891.97;;;21.19;76.60
37852;BME280;23691;52.486;4.650;2023-10-13T16:30:19;99903.66;;;21.20;76.59
37852;BME280;23691;52.486;4.650;2023-10-13T16:32:45;99910.69;;;21.16;76.69
37852;BME280;23691;52.486;4.650;2023-10-13T16:35:13;99914.75;;;21.13;76.85
37852;BME280;23691;52.486;4.650;2023-10-13T16:37:41;99914.19;;;21.11;76.70
37852;BME280;23691;52.486;4.650;2023-10-13T16:40:06;99902.47;;;21.11;76.68
37852;BME280;23691;52.486;4.650;2023-10-13T16:42:33;99896.47;;;21.09;76.66
37852;BME280;23691;52.486;4.650;2023-10-13T16:44:59;99904.84;;;21.02;76.71
37852;BME280;23691;52.486;4.650;2023-10-13T16:47:48;99891.22;;;20.97;76.95
37852;BME280;23691;52.486;4.650;2023-10-13T16:50:14;99886.53;;;20.92;77.10
37852;BME280;23691;52.486;4.650;2023-10-13T16:52:41;99889.50;;;20.91;77.20
37852;BME280;23691;52.486;4.650;2023-10-13T16:55:07;99900.09;;;20.87;77.08
37852;BME280;23691;52.486;4.650;2023-10-13T16:57:32;99897.59;;;20.86;77.30
37852;BME280;23691;52.486;4.650;2023-10-13T16:59:58;99898.13;;;20.83;77.25
37852;BME280;23691;52.486;4.650;2023-10-13T17:02:23;99893.50;;;20.83;77.43
37852;BME280;23691;52.486;4.650;2023-10-13T17:04:49;99894.84;;;20.80;77.53
37852;BME280;23691;52.486;4.650;2023-10-13T17:07:14;99896.47;;;20.82;77.55
37852;BME280;23691;52.486;4.650;2023-10-13T17:09:39;99898.38;;;20.81;77.84
37852;BME280;23691;52.486;4.650;2023-10-13T17:12:05;99900.28;;;20.80;77.87
37852;BME280;23691;52.486;4.650;2023-10-13T17:14:30;99894.03;;;20.80;77.82
37852;BME280;23691;52.486;4.650;2023-10-13T17:16:55;99898.88;;;20.78;77.91
37852;BME280;23691;52.486;4.650;2023-10-13T17:19:23;99897.22;;;20.77;78.18
37852;BME280;23691;52.486;4.650;2023-10-13T17:21:48;99888.00;;;20.78;78.18
37852;BME280;23691;52.486;4.650;2023-10-13T17:24:14;99884.22;;;20.79;77.99
37852;BME280;23691;52.486;4.650;2023-10-13T17:26:40;99881.75;;;20.77;78.03
37852;BME280;23691;52.486;4.650;2023-10-13T17:29:06;99881.19;;;20.75;78.20
37852;BME280;23691;52.486;4.650;2023-10-13T17:31:34;99884.72;;;20.76;78.11
37852;BME280;23691;52.486;4.650;2023-10-13T17:34:00;99875.75;;;20.75;78.01
37852;BME280;23691;52.486;4.650;2023-10-13T17:36:27;99885.53;;;20.76;77.92
37852;BME280;23691;52.486;4.650;2023-10-13T17:38:53;99889.91;;;20.77;77.81
37852;BME280;23691;52.486;4.650;2023-10-13T17:41:18;99890.41;;;20.74;77.61
37852;BME280;23691;52.486;4.650;2023-10-13T17:43:45;99893.41;;;20.73;77.74
37852;BME280;23691;52.486;4.650;2023-10-13T17:46:12;99893.41;;;20.73;77.52
37852;BME280;23691;52.486;4.650;2023-10-13T17:48:38;99884.44;;;20.72;77.63
37852;BME280;23691;52.486;4.650;2023-10-13T17:51:04;99889.03;;;20.72;77.43
37852;BME280;23691;52.486;4.650;2023-10-13T17:53:30;99890.41;;;20.74;77.37
37852;BME280;23691;52.486;4.650;2023-10-13T17:56:09;99876.81;;;20.74;77.33
37852;BME280;23691;52.486;4.650;2023-10-13T17:58:41;99875.75;;;20.75;77.22
37852;BME280;23691;52.486;4.650;2023-10-13T18:01:11;99864.06;;;20.75;77.04
37852;BME280;23691;52.486;4.650;2023-10-13T18:03:48;99861.34;;;20.75;76.89
37852;BME280;23691;52.486;4.650;2023-10-13T18:06:14;99848.31;;;20.77;76.73
37852;BME280;23691;52.486;4.650;2023-10-13T18:08:44;99857.84;;;20.79;76.39
37852;BME280;23691;52.486;4.650;2023-10-13T18:11:29;99851.03;;;20.77;76.62
37852;BME280;23691;52.486;4.650;2023-10-13T18:13:54;99857.31;;;20.77;76.42
37852;BME280;23691;52.486;4.650;2023-10-13T18:16:23;99843.72;;;20.77;76.42
37852;BME280;23691;52.486;4.650;2023-10-13T18:18:51;99849.69;;;20.79;76.29
37852;BME280;23691;52.486;4.650;2023-10-13T18:21:37;99836.38;;;20.78;76.34
37852;BME280;23691;52.486;4.650;2023-10-13T18:24:03;99836.38;;;20.78;76.22
37852;BME280;23691;52.486;4.650;2023-10-13T18:26:28;99828.22;;;20.78;76.19
37852;BME280;23691;52.486;4.650;2023-10-13T18:29:06;99857.84;;;20.79;76.27
37852;BME280;23691;52.486;4.650;2023-10-13T18:31:59;99855.13;;;20.79;76.35
37852;BME280;23691;52.486;4.650;2023-10-13T18:34:25;99832.31;;;20.80;76.47
37852;BME280;23691;52.486;4.650;2023-10-13T18:37:00;99847.19;;;20.73;76.93
37852;BME280;23691;52.486;4.650;2023-10-13T18:39:43;99834.94;;;20.70;77.01
37852;BME280;23691;52.486;4.650;2023-10-13T18:42:40;99827.03;;;20.69;77.16
37852;BME280;23691;52.486;4.650;2023-10-13T18:45:35;99825.41;;;20.68;77.18
37852;BME280;23691;52.486;4.650;2023-10-13T18:48:26;99826.47;;;20.67;77.17
37852;BME280;23691;52.486;4.650;2023-10-13T18:50:53;99831.38;;;20.70;77.21
37852;BME280;23691;52.486;4.650;2023-10-13T18:53:30;99817.53;;;20.71;77.27
37852;BME280;23691;52.486;4.650;2023-10-13T18:56:04;99819.75;;;20.74;77.03
37852;BME280;23691;52.486;4.650;2023-10-13T18:58:35;99818.41;;;20.77;76.89
37852;BME280;23691;52.486;4.650;2023-10-13T19:01:12;99821.44;;;20.80;76.71
37852;BME280;23691;52.486;4.650;2023-10-13T19:03:48;99816.31;;;20.84;76.51
37852;BME280;23691;52.486;4.650;2023-10-13T19:06:28;99823.06;;;20.82;76.32
37852;BME280;23691;52.486;4.650;2023-10-13T19:08:57;99818.41;;;20.77;76.38
37852;BME280;23691;52.486;4.650;2023-10-13T19:11:25;99819.50;;;20.76;76.27
37852;BME280;23691;52.486;4.650;2023-10-13T19:14:36;99829.84;;;20.79;76.30
37852;BME280;23691;52.486;4.650;2023-10-13T19:17:18;99829.59;;;20.80;76.10
37852;BME280;23691;52.486;4.650;2023-10-13T19:19:58;99828.25;;;20.83;75.99
37852;BME280;23691;52.486;4.650;2023-10-13T19:22:34;99818.97;;;20.79;76.24